Terminal Aerodrome Forecast
Issued by NWS

Home | Current Version | Previous Version | Text Only | Print | Product List | Glossary On
Versions: 1 2 3 4 5 6 7 8 9 10 11 12 13 14 15 16 17 18 19 20 21 22
139
FTUS43 KBIS 252332
TAFJMS
TAF
KJMS 252332Z 2600/2624 27004KT P6SM FEW020 BKN090
     FM260400 16004KT P6SM VCSH BKN040
     FM260600 17005KT 2SM -SN OVC015
     FM260900 33016G24KT 3SM -SN OVC010
     FM261100 34014KT P6SM VCSH BKN020
     FM261300 33011KT P6SM SCT070
     FM262100 20009KT P6SM SCT070=

USA.gov is the U.S. government's official web portal to all federal, state and local government web resources and services.